ΕΜΥ, Εθνική Μετεωρολογική Υπηρεσία - Δελτία Καιρού, Προγνώσεις

ΑΕΡΟΝΑΥΤΙΛΙΑ

GREEK AIRPORTS CODES

LGAV 280550Z VRB02KT 8000 SCT005 BKN020 14/11 Q1020 RMK BKN080 BKN180 NOSIG=

EUROPEAN AIRPORTS CODES

LFPO 280600Z 23003KT 8000 SCT017 01/00 Q1023 NOSIG=